Alts del Remanso, Puerto Rico
Current Conditions -  °F | °C
As of 7:56 AM on Wednesday 22 Oct 2014 (Local Time) from TJSJ Reporting Station
Scattered Clouds Scattered Clouds  
Wind Chill: 28°   Ceiling: Unl
Heat Index: 31°   Visibility: 10mi
Dew Point: 23°   Wind: 5mph
Humidity: 74%   Direction: 130°SE
Pressure: 29.98"   Gusts: NA
Location:  18.3754°N, 66.0577°W
Report Text: TJSJ 221156Z 13004KT 10SM FEW030 SCT065 28/23 A2998 RMK AO2 SLP152 T02780228 10278 20256 51018
Loading
Personal Weather Stations






























Interactive Weather Map
Tropical Storm Tracking
New forecast layout! Learn more

10-Day Weather Forecast

Advertisements
Track Severe Weather on mobile